sensor_id;sensor_type;location;lat;lon;timestamp;pressure;altitude;pressure_sealevel;temperature;humidity
71621;BME280;59471;42.254;23.102;2023-04-03T00:01:09;95287.56;;;6.56;73.13
71621;BME280;59471;42.254;23.102;2023-04-03T00:03:35;95290.84;;;6.42;73.51
71621;BME280;59471;42.254;23.102;2023-04-03T00:06:03;95292.00;;;6.23;74.03
71621;BME280;59471;42.254;23.102;2023-04-03T00:08:30;95284.03;;;6.16;74.02
71621;BME280;59471;42.254;23.102;2023-04-03T00:10:58;95279.78;;;6.48;73.00
71621;BME280;59471;42.254;23.102;2023-04-03T00:13:23;95272.63;;;6.42;72.88
71621;BME280;59471;42.254;23.102;2023-04-03T00:15:50;95276.19;;;6.49;72.61
71621;BME280;59471;42.254;23.102;2023-04-03T00:18:17;95273.72;;;6.64;73.02
71621;BME280;59471;42.254;23.102;2023-04-03T00:20:43;95270.84;;;6.42;72.57
71621;BME280;59471;42.254;23.102;2023-04-03T00:23:09;95269.72;;;6.37;72.78
71621;BME280;59471;42.254;23.102;2023-04-03T00:25:35;95265.22;;;6.06;73.34
71621;BME280;59471;42.254;23.102;2023-04-03T00:28:02;95268.63;;;6.07;73.23
71621;BME280;59471;42.254;23.102;2023-04-03T00:30:28;95265.53;;;6.03;73.92
71621;BME280;59471;42.254;23.102;2023-04-03T00:32:54;95273.66;;;6.24;72.47
71621;BME280;59471;42.254;23.102;2023-04-03T00:35:21;95273.97;;;6.05;73.20
71621;BME280;59471;42.254;23.102;2023-04-03T00:37:47;95269.09;;;6.02;73.80
71621;BME280;59471;42.254;23.102;2023-04-03T00:40:15;95270.91;;;5.93;73.97
71621;BME280;59471;42.254;23.102;2023-04-03T00:42:42;95271.03;;;5.92;73.20
71621;BME280;59471;42.254;23.102;2023-04-03T00:47:43;95264.34;;;5.89;73.82
71621;BME280;59471;42.254;23.102;2023-04-03T00:50:09;95282.25;;;6.00;72.99
71621;BME280;59471;42.254;23.102;2023-04-03T00:52:37;95285.00;;;5.91;73.62
71621;BME280;59471;42.254;23.102;2023-04-03T00:55:05;95285.28;;;5.63;73.89
71621;BME280;59471;42.254;23.102;2023-04-03T00:57:33;95292.09;;;5.64;73.99
71621;BME280;59471;42.254;23.102;2023-04-03T01:00:08;95283.34;;;5.73;73.98
71621;BME280;59471;42.254;23.102;2023-04-03T01:02:35;95291.44;;;5.54;74.20
71621;BME280;59471;42.254;23.102;2023-04-03T01:05:01;95290.97;;;5.67;73.93
71621;BME280;59471;42.254;23.102;2023-04-03T01:07:30;95297.97;;;5.74;73.56
71621;BME280;59471;42.254;23.102;2023-04-03T01:09:58;95297.34;;;5.89;72.85
71621;BME280;59471;42.254;23.102;2023-04-03T01:12:31;95297.13;;;5.57;74.12
71621;BME280;59471;42.254;23.102;2023-04-03T01:17:37;95303.28;;;5.48;74.65
71621;BME280;59471;42.254;23.102;2023-04-03T01:28:27;95310.47;;;5.12;77.38
71621;BME280;59471;42.254;23.102;2023-04-03T01:33:51;95298.03;;;5.32;75.89
71621;BME280;59471;42.254;23.102;2023-04-03T01:36:25;95297.81;;;5.09;77.37
71621;BME280;59471;42.254;23.102;2023-04-03T01:38:54;95297.91;;;5.33;76.41
71621;BME280;59471;42.254;23.102;2023-04-03T01:41:20;95290.94;;;5.50;75.38
71621;BME280;59471;42.254;23.102;2023-04-03T01:43:47;95295.03;;;5.53;74.84
71621;BME280;59471;42.254;23.102;2023-04-03T01:46:13;95283.47;;;5.39;75.25
71621;BME280;59471;42.254;23.102;2023-04-03T01:48:40;95284.56;;;5.20;75.88
71621;BME280;59471;42.254;23.102;2023-04-03T01:51:05;95282.59;;;5.14;76.08
71621;BME280;59471;42.254;23.102;2023-04-03T01:53:31;95278.03;;;5.16;76.31
71621;BME280;59471;42.254;23.102;2023-04-03T01:55:57;95279.97;;;5.06;76.08
71621;BME280;59471;42.254;23.102;2023-04-03T01:58:23;95268.66;;;5.23;75.51
71621;BME280;59471;42.254;23.102;2023-04-03T02:00:48;95273.03;;;5.23;75.01
71621;BME280;59471;42.254;23.102;2023-04-03T02:03:14;95273.16;;;5.13;76.17
71621;BME280;59471;42.254;23.102;2023-04-03T02:05:40;95274.19;;;5.20;75.78
71621;BME280;59471;42.254;23.102;2023-04-03T02:08:05;95269.41;;;5.07;76.00
71621;BME280;59471;42.254;23.102;2023-04-03T02:10:31;95271.22;;;5.15;75.43
71621;BME280;59471;42.254;23.102;2023-04-03T02:12:57;95260.75;;;4.82;76.63
71621;BME280;59471;42.254;23.102;2023-04-03T02:15:22;95266.66;;;5.09;75.57
71621;BME280;59471;42.254;23.102;2023-04-03T02:17:48;95268.59;;;5.07;75.93
71621;BME280;59471;42.254;23.102;2023-04-03T02:20:13;95266.31;;;4.96;76.05
71621;BME280;59471;42.254;23.102;2023-04-03T02:22:39;95262.72;;;4.97;75.88
71621;BME280;59471;42.254;23.102;2023-04-03T02:25:05;95263.72;;;5.04;75.63
71621;BME280;59471;42.254;23.102;2023-04-03T02:27:30;95263.09;;;5.10;75.76
71621;BME280;59471;42.254;23.102;2023-04-03T02:29:57;95252.75;;;5.18;75.74
71621;BME280;59471;42.254;23.102;2023-04-03T02:32:22;95252.59;;;5.28;76.09
71621;BME280;59471;42.254;23.102;2023-04-03T02:34:48;95254.34;;;5.11;75.85
71621;BME280;59471;42.254;23.102;2023-04-03T02:37:13;95252.00;;;4.92;76.63
71621;BME280;59471;42.254;23.102;2023-04-03T02:39:39;95246.50;;;4.86;76.58
71621;BME280;59471;42.254;23.102;2023-04-03T02:42:05;95245.88;;;5.01;76.19
71621;BME280;59471;42.254;23.102;2023-04-03T02:44:30;95240.09;;;5.15;76.17
71621;BME280;59471;42.254;23.102;2023-04-03T02:46:56;95236.84;;;5.29;75.78
71621;BME280;59471;42.254;23.102;2023-04-03T02:49:21;95231.34;;;5.32;75.67
71621;BME280;59471;42.254;23.102;2023-04-03T02:51:47;95237.06;;;5.36;74.99
71621;BME280;59471;42.254;23.102;2023-04-03T02:54:13;95234.28;;;5.38;75.47
71621;BME280;59471;42.254;23.102;2023-04-03T02:56:38;95231.06;;;5.44;74.95
71621;BME280;59471;42.254;23.102;2023-04-03T02:59:04;95223.56;;;5.32;75.09
71621;BME280;59471;42.254;23.102;2023-04-03T03:01:30;95219.34;;;5.23;75.82
71621;BME280;59471;42.254;23.102;2023-04-03T03:03:58;95221.66;;;5.43;75.23
71621;BME280;59471;42.254;23.102;2023-04-03T03:06:25;95219.19;;;5.57;74.86
71621;BME280;59471;42.254;23.102;2023-04-03T03:08:51;95208.31;;;5.38;75.06
71621;BME280;59471;42.254;23.102;2023-04-03T03:11:17;95218.88;;;5.61;74.88
71621;BME280;59471;42.254;23.102;2023-04-03T03:13:43;95217.09;;;5.69;73.84
71621;BME280;59471;42.254;23.102;2023-04-03T03:16:08;95222.78;;;5.56;74.08
71621;BME280;59471;42.254;23.102;2023-04-03T03:18:34;95221.97;;;5.56;74.98
71621;BME280;59471;42.254;23.102;2023-04-03T03:21:01;95221.16;;;5.64;74.53
71621;BME280;59471;42.254;23.102;2023-04-03T03:23:28;95211.41;;;5.49;74.26
71621;BME280;59471;42.254;23.102;2023-04-03T03:26:04;95215.75;;;5.32;75.22
71621;BME280;59471;42.254;23.102;2023-04-03T03:28:32;95218.47;;;5.06;76.87
71621;BME280;59471;42.254;23.102;2023-04-03T03:30:58;95216.19;;;5.03;76.38
71621;BME280;59471;42.254;23.102;2023-04-03T03:33:24;95210.91;;;5.21;75.75
71621;BME280;59471;42.254;23.102;2023-04-03T03:35:51;95209.44;;;5.35;75.15
71621;BME280;59471;42.254;23.102;2023-04-03T03:38:17;95213.19;;;5.24;76.05
71621;BME280;59471;42.254;23.102;2023-04-03T03:40:42;95216.38;;;5.10;76.75
71621;BME280;59471;42.254;23.102;2023-04-03T03:43:08;95210.47;;;4.92;77.18
71621;BME280;59471;42.254;23.102;2023-04-03T03:45:34;95206.63;;;5.04;77.41
71621;BME280;59471;42.254;23.102;2023-04-03T03:48:00;95207.31;;;5.22;76.15
71621;BME280;59471;42.254;23.102;2023-04-03T03:50:26;95211.50;;;5.07;76.58
71621;BME280;59471;42.254;23.102;2023-04-03T03:52:52;95205.69;;;5.05;77.03
71621;BME280;59471;42.254;23.102;2023-04-03T03:55:17;95214.78;;;5.17;78.61
71621;BME280;59471;42.254;23.102;2023-04-03T03:57:43;95206.22;;;5.33;77.07
71621;BME280;59471;42.254;23.102;2023-04-03T04:00:09;95202.31;;;5.37;75.96
71621;BME280;59471;42.254;23.102;2023-04-03T04:02:35;95216.28;;;5.36;75.40
71621;BME280;59471;42.254;23.102;2023-04-03T04:05:01;95212.38;;;5.24;76.75
71621;BME280;59471;42.254;23.102;2023-04-03T04:07:26;95214.47;;;5.20;77.16
71621;BME280;59471;42.254;23.102;2023-04-03T04:09:53;95218.19;;;5.26;76.22
71621;BME280;59471;42.254;23.102;2023-04-03T04:12:19;95218.03;;;5.11;77.26
71621;BME280;59471;42.254;23.102;2023-04-03T04:14:45;95222.75;;;5.24;76.47
71621;BME280;59471;42.254;23.102;2023-04-03T04:17:12;95227.31;;;5.30;76.01
71621;BME280;59471;42.254;23.102;2023-04-03T04:19:38;95224.84;;;5.28;76.23
71621;BME280;59471;42.254;23.102;2023-04-03T04:22:04;95228.13;;;5.30;76.25
71621;BME280;59471;42.254;23.102;2023-04-03T04:24:29;95233.59;;;5.11;77.31
71621;BME280;59471;42.254;23.102;2023-04-03T04:26:55;95236.47;;;5.00;78.07
71621;BME280;59471;42.254;23.102;2023-04-03T04:29:21;95234.22;;;5.05;78.23
71621;BME280;59471;42.254;23.102;2023-04-03T04:31:46;95239.94;;;4.74;79.28
71621;BME280;59471;42.254;23.102;2023-04-03T04:34:12;95235.25;;;4.78;79.52
71621;BME280;59471;42.254;23.102;2023-04-03T04:36:40;95250.13;;;5.02;78.97
71621;BME280;59471;42.254;23.102;2023-04-03T04:39:06;95260.03;;;5.15;78.46
71621;BME280;59471;42.254;23.102;2023-04-03T04:41:31;95265.75;;;5.34;77.43
71621;BME280;59471;42.254;23.102;2023-04-03T04:43:57;95264.69;;;5.62;76.22
71621;BME280;59471;42.254;23.102;2023-04-03T04:46:23;95264.84;;;5.76;75.22
71621;BME280;59471;42.254;23.102;2023-04-03T04:48:48;95270.06;;;6.01;73.85
71621;BME280;59471;42.254;23.102;2023-04-03T04:51:14;95269.06;;;5.86;74.26
71621;BME280;59471;42.254;23.102;2023-04-03T04:53:41;95267.13;;;5.88;74.77
71621;BME280;59471;42.254;23.102;2023-04-03T04:56:07;95260.00;;;6.06;74.21
71621;BME280;59471;42.254;23.102;2023-04-03T04:58:33;95266.03;;;6.07;73.70
71621;BME280;59471;42.254;23.102;2023-04-03T05:01:03;95258.03;;;6.08;72.79
71621;BME280;59471;42.254;23.102;2023-04-03T05:03:30;95258.38;;;6.21;72.84
71621;BME280;59471;42.254;23.102;2023-04-03T05:05:56;95260.00;;;6.22;73.07
71621;BME280;59471;42.254;23.102;2023-04-03T05:08:22;95267.78;;;6.14;74.03
71621;BME280;59471;42.254;23.102;2023-04-03T05:10:48;95270.53;;;6.29;73.97
71621;BME280;59471;42.254;23.102;2023-04-03T05:13:14;95268.44;;;6.24;74.29
71621;BME280;59471;42.254;23.102;2023-04-03T05:15:39;95260.63;;;6.33;73.83
71621;BME280;59471;42.254;23.102;2023-04-03T05:18:05;95258.97;;;6.48;72.20
71621;BME280;59471;42.254;23.102;2023-04-03T05:20:31;95265.44;;;6.68;72.74
71621;BME280;59471;42.254;23.102;2023-04-03T05:22:57;95267.31;;;6.83;72.21
71621;BME280;59471;42.254;23.102;2023-04-03T05:25:23;95269.94;;;6.74;71.58
71621;BME280;59471;42.254;23.102;2023-04-03T05:27:49;95263.06;;;6.90;72.65
71621;BME280;59471;42.254;23.102;2023-04-03T05:30:15;95250.44;;;6.79;72.68
71621;BME280;59471;42.254;23.102;2023-04-03T05:32:41;95246.50;;;6.91;73.22
71621;BME280;59471;42.254;23.102;2023-04-03T05:35:07;95252.31;;;6.93;72.99
71621;BME280;59471;42.254;23.102;2023-04-03T05:37:33;95246.31;;;6.92;71.94
71621;BME280;59471;42.254;23.102;2023-04-03T05:39:59;95248.16;;;7.15;71.76
71621;BME280;59471;42.254;23.102;2023-04-03T05:42:25;95239.19;;;7.17;70.78
71621;BME280;59471;42.254;23.102;2023-04-03T05:44:50;95234.78;;;7.18;71.07
71621;BME280;59471;42.254;23.102;2023-04-03T05:47:17;95240.13;;;7.25;70.95
71621;BME280;59471;42.254;23.102;2023-04-03T05:49:43;95239.44;;;7.31;71.87
71621;BME280;59471;42.254;23.102;2023-04-03T05:52:31;95245.03;;;7.19;71.27
71621;BME280;59471;42.254;23.102;2023-04-03T05:54:58;95242.69;;;7.56;71.77
71621;BME280;59471;42.254;23.102;2023-04-03T05:57:24;95234.84;;;7.64;71.09
71621;BME280;59471;42.254;23.102;2023-04-03T05:59:50;95228.34;;;7.37;70.56
71621;BME280;59471;42.254;23.102;2023-04-03T06:02:18;95247.88;;;7.02;71.08
71621;BME280;59471;42.254;23.102;2023-04-03T06:04:45;95238.53;;;7.15;71.06
71621;BME280;59471;42.254;23.102;2023-04-03T06:07:14;95236.66;;;7.09;70.34
71621;BME280;59471;42.254;23.102;2023-04-03T06:09:41;95237.34;;;6.95;71.22
71621;BME280;59471;42.254;23.102;2023-04-03T06:12:07;95239.28;;;7.01;69.95
71621;BME280;59471;42.254;23.102;2023-04-03T06:14:34;95234.09;;;6.93;70.98
71621;BME280;59471;42.254;23.102;2023-04-03T06:16:59;95237.34;;;6.95;71.35
71621;BME280;59471;42.254;23.102;2023-04-03T06:19:26;95246.78;;;6.96;72.40
71621;BME280;59471;42.254;23.102;2023-04-03T06:21:52;95255.69;;;7.02;71.11
71621;BME280;59471;42.254;23.102;2023-04-03T06:24:18;95238.94;;;7.04;71.22
71621;BME280;59471;42.254;23.102;2023-04-03T06:26:47;95239.78;;;7.28;71.79
71621;BME280;59471;42.254;23.102;2023-04-03T06:29:12;95243.63;;;7.40;70.46
71621;BME280;59471;42.254;23.102;2023-04-03T06:31:38;95237.00;;;7.60;69.15
71621;BME280;59471;42.254;23.102;2023-04-03T06:34:04;95232.63;;;7.53;70.62
71621;BME280;59471;42.254;23.102;2023-04-03T06:36:32;95236.09;;;7.45;70.87
71621;BME280;59471;42.254;23.102;2023-04-03T06:38:57;95231.16;;;7.50;71.37
71621;BME280;59471;42.254;23.102;2023-04-03T06:41:23;95237.50;;;7.79;71.20
71621;BME280;59471;42.254;23.102;2023-04-03T06:43:48;95243.63;;;7.86;70.12
71621;BME280;59471;42.254;23.102;2023-04-03T06:46:15;95246.31;;;8.16;69.71
71621;BME280;59471;42.254;23.102;2023-04-03T06:48:42;95245.59;;;8.22;69.82
71621;BME280;59471;42.254;23.102;2023-04-03T06:53:47;95247.06;;;8.24;70.22
71621;BME280;59471;42.254;23.102;2023-04-03T06:56:14;95238.97;;;8.34;69.86
71621;BME280;59471;42.254;23.102;2023-04-03T06:58:40;95235.06;;;8.53;68.11
71621;BME280;59471;42.254;23.102;2023-04-03T07:01:07;95231.47;;;8.54;68.39
71621;BME280;59471;42.254;23.102;2023-04-03T07:03:35;95220.75;;;8.64;69.13
71621;BME280;59471;42.254;23.102;2023-04-03T07:06:02;95215.88;;;8.61;68.73
71621;BME280;59471;42.254;23.102;2023-04-03T07:08:28;95200.88;;;8.63;70.36
71621;BME280;59471;42.254;23.102;2023-04-03T07:10:54;95194.00;;;8.91;69.06
71621;BME280;59471;42.254;23.102;2023-04-03T07:13:20;95183.03;;;8.81;68.84
71621;BME280;59471;42.254;23.102;2023-04-03T07:15:45;95170.34;;;8.78;67.91
71621;BME280;59471;42.254;23.102;2023-04-03T07:18:11;95178.59;;;8.96;68.32
71621;BME280;59471;42.254;23.102;2023-04-03T07:20:36;95183.00;;;8.96;68.20
71621;BME280;59471;42.254;23.102;2023-04-03T07:23:03;95178.88;;;9.23;68.08
71621;BME280;59471;42.254;23.102;2023-04-03T07:25:29;95174.69;;;9.43;67.63
71621;BME280;59471;42.254;23.102;2023-04-03T07:27:55;95170.44;;;9.64;67.44
71621;BME280;59471;42.254;23.102;2023-04-03T07:30:21;95170.78;;;9.82;67.00
71621;BME280;59471;42.254;23.102;2023-04-03T07:32:47;95170.06;;;9.67;66.34
71621;BME280;59471;42.254;23.102;2023-04-03T07:35:12;95168.50;;;9.72;65.79
71621;BME280;59471;42.254;23.102;2023-04-03T07:37:38;95159.38;;;9.62;66.97
71621;BME280;59471;42.254;23.102;2023-04-03T07:40:04;95158.72;;;9.60;65.96
71621;BME280;59471;42.254;23.102;2023-04-03T07:42:31;95158.72;;;9.81;66.64
71621;BME280;59471;42.254;23.102;2023-04-03T07:44:57;95154.81;;;9.98;64.69
71621;BME280;59471;42.254;23.102;2023-04-03T07:47:23;95151.06;;;10.08;64.67
71621;BME280;59471;42.254;23.102;2023-04-03T07:49:49;95140.66;;;10.21;64.47
71621;BME280;59471;42.254;23.102;2023-04-03T07:52:14;95144.41;;;10.33;64.89
71621;BME280;59471;42.254;23.102;2023-04-03T07:54:41;95144.94;;;10.57;62.97
71621;BME280;59471;42.254;23.102;2023-04-03T07:57:07;95143.91;;;10.23;63.52
71621;BME280;59471;42.254;23.102;2023-04-03T07:59:33;95137.44;;;10.47;63.98
71621;BME280;59471;42.254;23.102;2023-04-03T08:01:58;95146.66;;;10.84;63.10
71621;BME280;59471;42.254;23.102;2023-04-03T08:04:24;95143.06;;;10.85;62.25
71621;BME280;59471;42.254;23.102;2023-04-03T08:06:51;95133.13;;;10.74;62.61
71621;BME280;59471;42.254;23.102;2023-04-03T08:09:17;95131.78;;;10.43;64.09
71621;BME280;59471;42.254;23.102;2023-04-03T08:11:44;95136.38;;;10.76;63.68
71621;BME280;59471;42.254;23.102;2023-04-03T08:14:11;95136.47;;;10.55;63.25
71621;BME280;59471;42.254;23.102;2023-04-03T08:16:42;95139.72;;;10.63;63.51
71621;BME280;59471;42.254;23.102;2023-04-03T08:19:09;95129.44;;;10.62;62.47
71621;BME280;59471;42.254;23.102;2023-04-03T08:21:36;95123.66;;;10.73;63.48
71621;BME280;59471;42.254;23.102;2023-04-03T08:24:01;95116.47;;;10.88;62.90
71621;BME280;59471;42.254;23.102;2023-04-03T08:26:29;95104.34;;;10.87;62.68
71621;BME280;59471;42.254;23.102;2023-04-03T08:28:54;95101.72;;;10.87;62.77
71621;BME280;59471;42.254;23.102;2023-04-03T08:31:20;95106.41;;;10.99;62.41
71621;BME280;59471;42.254;23.102;2023-04-03T08:33:46;95096.41;;;11.29;63.11
71621;BME280;59471;42.254;23.102;2023-04-03T08:36:30;95085.94;;;11.35;62.47
71621;BME280;59471;42.254;23.102;2023-04-03T08:38:56;95086.31;;;11.46;61.89
71621;BME280;59471;42.254;23.102;2023-04-03T08:50:04;95079.03;;;11.34;60.25
71621;BME280;59471;42.254;23.102;2023-04-03T08:52:45;95081.06;;;11.66;59.13
71621;BME280;59471;42.254;23.102;2023-04-03T08:57:51;95057.69;;;11.57;60.35
71621;BME280;59471;42.254;23.102;2023-04-03T09:00:25;95050.41;;;11.79;61.42
71621;BME280;59471;42.254;23.102;2023-04-03T09:02:55;95056.25;;;12.01;59.07
71621;BME280;59471;42.254;23.102;2023-04-03T09:08:25;95049.19;;;12.02;58.83
71621;BME280;59471;42.254;23.102;2023-04-03T09:11:06;95034.88;;;11.78;58.21
71621;BME280;59471;42.254;23.102;2023-04-03T09:13:59;95035.50;;;11.87;58.29
71621;BME280;59471;42.254;23.102;2023-04-03T09:24:28;95028.34;;;12.20;56.75
71621;BME280;59471;42.254;23.102;2023-04-03T09:26:58;95017.25;;;12.18;57.28
71621;BME280;59471;42.254;23.102;2023-04-03T09:29:35;95024.44;;;12.43;57.62
71621;BME280;59471;42.254;23.102;2023-04-03T09:32:29;95010.66;;;12.47;55.52
71621;BME280;59471;42.254;23.102;2023-04-03T09:35:01;95008.59;;;12.56;53.81
71621;BME280;59471;42.254;23.102;2023-04-03T09:37:43;95006.16;;;12.61;52.99
71621;BME280;59471;42.254;23.102;2023-04-03T09:42:53;95001.75;;;12.55;52.85
71621;BME280;59471;42.254;23.102;2023-04-03T09:45:32;94996.09;;;12.51;52.70
71621;BME280;59471;42.254;23.102;2023-04-03T09:53:35;94984.66;;;12.39;54.09
71621;BME280;59471;42.254;23.102;2023-04-03T09:59:06;94984.25;;;12.36;54.03
71621;BME280;59471;42.254;23.102;2023-04-03T10:01:38;94984.84;;;12.38;53.80
71621;BME280;59471;42.254;23.102;2023-04-03T10:04:09;94981.06;;;12.27;54.76
71621;BME280;59471;42.254;23.102;2023-04-03T10:06:48;94970.75;;;12.25;54.52
71621;BME280;59471;42.254;23.102;2023-04-03T10:09:30;94975.84;;;12.20;54.98
71621;BME280;59471;42.254;23.102;2023-04-03T10:12:08;94970.59;;;12.20;54.17
71621;BME280;59471;42.254;23.102;2023-04-03T10:23:24;94967.09;;;12.33;54.87
71621;BME280;59471;42.254;23.102;2023-04-03T10:26:02;94971.34;;;12.34;55.42
71621;BME280;59471;42.254;23.102;2023-04-03T10:34:18;94989.97;;;12.64;55.93
71621;BME280;59471;42.254;23.102;2023-04-03T10:36:56;95005.31;;;12.67;55.96
71621;BME280;59471;42.254;23.102;2023-04-03T10:47:23;94992.00;;;12.62;58.36
71621;BME280;59471;42.254;23.102;2023-04-03T10:56:15;94971.91;;;12.43;55.81
71621;BME280;59471;42.254;23.102;2023-04-03T10:58:45;94975.09;;;12.45;58.01
71621;BME280;59471;42.254;23.102;2023-04-03T11:02:11;94951.00;;;12.16;57.23
71621;BME280;59471;42.254;23.102;2023-04-03T11:04:37;94968.06;;;12.39;55.82
71621;BME280;59471;42.254;23.102;2023-04-03T11:07:14;94967.31;;;12.32;56.35
71621;BME280;59471;42.254;23.102;2023-04-03T11:09:45;94964.69;;;12.32;55.64
71621;BME280;59471;42.254;23.102;2023-04-03T11:12:33;94966.38;;;12.51;56.21
71621;BME280;59471;42.254;23.102;2023-04-03T11:15:04;94959.81;;;12.35;55.98
71621;BME280;59471;42.254;23.102;2023-04-03T11:17:36;94946.09;;;12.33;55.88
71621;BME280;59471;42.254;23.102;2023-04-03T11:22:58;94941.41;;;11.97;57.65
71621;BME280;59471;42.254;23.102;2023-04-03T11:25:29;94947.03;;;12.00;57.88
71621;BME280;59471;42.254;23.102;2023-04-03T11:28:02;94959.97;;;12.02;57.88
71621;BME280;59471;42.254;23.102;2023-04-03T11:36:30;94940.44;;;11.85;58.99
71621;BME280;59471;42.254;23.102;2023-04-03T11:39:15;94936.81;;;11.72;60.51
71621;BME280;59471;42.254;23.102;2023-04-03T11:41:44;94935.00;;;11.79;59.93
71621;BME280;59471;42.254;23.102;2023-04-03T11:47:03;94921.66;;;11.88;58.90
71621;BME280;59471;42.254;23.102;2023-04-03T11:50:08;94911.19;;;11.74;59.99
71621;BME280;59471;42.254;23.102;2023-04-03T11:53:03;94911.22;;;11.61;60.83
71621;BME280;59471;42.254;23.102;2023-04-03T12:27:24;94849.91;;;10.57;66.53
71621;BME280;59471;42.254;23.102;2023-04-03T12:30:00;94846.25;;;10.52;67.09
71621;BME280;59471;42.254;23.102;2023-04-03T12:41:01;94820.50;;;10.35;68.01
71621;BME280;59471;42.254;23.102;2023-04-03T12:43:50;94806.97;;;10.25;69.88
71621;BME280;59471;42.254;23.102;2023-04-03T12:46:24;94799.31;;;10.24;70.99
71621;BME280;59471;42.254;23.102;2023-04-03T12:48:57;94792.47;;;10.16;72.48
71621;BME280;59471;42.254;23.102;2023-04-03T12:51:40;94784.00;;;10.20;73.13
71621;BME280;59471;42.254;23.102;2023-04-03T12:54:18;94787.66;;;10.39;72.27
71621;BME280;59471;42.254;23.102;2023-04-03T12:56:47;94791.72;;;10.35;71.96
71621;BME280;59471;42.254;23.102;2023-04-03T12:59:22;94782.84;;;10.36;72.22
71621;BME280;59471;42.254;23.102;2023-04-03T13:02:00;94772.38;;;10.36;70.55
71621;BME280;59471;42.254;23.102;2023-04-03T13:04:27;94779.81;;;10.33;72.00
71621;BME280;59471;42.254;23.102;2023-04-03T13:06:54;94765.13;;;10.38;71.83
71621;BME280;59471;42.254;23.102;2023-04-03T13:09:29;94767.72;;;10.25;71.73
71621;BME280;59471;42.254;23.102;2023-04-03T13:12:09;94763.72;;;10.29;71.36
71621;BME280;59471;42.254;23.102;2023-04-03T13:14:37;94754.22;;;10.15;71.71
71621;BME280;59471;42.254;23.102;2023-04-03T13:17:10;94769.13;;;10.01;71.17
71621;BME280;59471;42.254;23.102;2023-04-03T13:19:38;94771.13;;;9.99;72.28
71621;BME280;59471;42.254;23.102;2023-04-03T13:22:10;94781.00;;;10.04;72.39
71621;BME280;59471;42.254;23.102;2023-04-03T13:25:09;94764.91;;;10.07;71.32
71621;BME280;59471;42.254;23.102;2023-04-03T13:27:38;94766.66;;;9.86;71.35
71621;BME280;59471;42.254;23.102;2023-04-03T13:30:20;94762.66;;;9.90;71.63
71621;BME280;59471;42.254;23.102;2023-04-03T13:33:00;94760.84;;;9.71;70.99
71621;BME280;59471;42.254;23.102;2023-04-03T13:35:35;94770.28;;;9.72;71.95
71621;BME280;59471;42.254;23.102;2023-04-03T13:38:07;94765.84;;;9.66;72.09
71621;BME280;59471;42.254;23.102;2023-04-03T13:40:56;94757.38;;;9.64;72.11
71621;BME280;59471;42.254;23.102;2023-04-03T13:43:28;94765.63;;;9.61;72.39
71621;BME280;59471;42.254;23.102;2023-04-03T13:46:23;94760.38;;;9.47;72.35
71621;BME280;59471;42.254;23.102;2023-04-03T13:48:55;94761.78;;;9.57;71.64
71621;BME280;59471;42.254;23.102;2023-04-03T13:51:29;94756.56;;;9.57;70.85
71621;BME280;59471;42.254;23.102;2023-04-03T13:54:17;94742.06;;;9.47;72.34
71621;BME280;59471;42.254;23.102;2023-04-03T13:56:54;94752.50;;;9.34;72.06
71621;BME280;59471;42.254;23.102;2023-04-03T13:59:40;94744.84;;;9.39;72.88
71621;BME280;59471;42.254;23.102;2023-04-03T14:07:10;94739.16;;;9.16;74.17
71621;BME280;59471;42.254;23.102;2023-04-03T14:09:36;94745.19;;;9.16;73.16
71621;BME280;59471;42.254;23.102;2023-04-03T14:12:06;94740.38;;;9.20;73.08
71621;BME280;59471;42.254;23.102;2023-04-03T14:14:37;94718.66;;;9.13;72.57
71621;BME280;59471;42.254;23.102;2023-04-03T14:17:14;94726.69;;;9.11;72.75
71621;BME280;59471;42.254;23.102;2023-04-03T14:19:42;94720.22;;;9.00;73.59
71621;BME280;59471;42.254;23.102;2023-04-03T14:22:20;94711.38;;;9.01;73.41
71621;BME280;59471;42.254;23.102;2023-04-03T14:24:49;94708.38;;;9.04;74.00
71621;BME280;59471;42.254;23.102;2023-04-03T14:27:20;94710.78;;;8.99;73.16
71621;BME280;59471;42.254;23.102;2023-04-03T14:29:49;94706.09;;;8.88;74.95
71621;BME280;59471;42.254;23.102;2023-04-03T14:32:18;94701.50;;;8.90;73.21
71621;BME280;59471;42.254;23.102;2023-04-03T14:34:49;94703.09;;;8.91;72.68
71621;BME280;59471;42.254;23.102;2023-04-03T14:37:23;94700.47;;;8.91;72.17
71621;BME280;59471;42.254;23.102;2023-04-03T14:39:55;94697.09;;;8.97;72.70
71621;BME280;59471;42.254;23.102;2023-04-03T14:42:28;94699.88;;;8.89;73.46
71621;BME280;59471;42.254;23.102;2023-04-03T14:44:57;94706.47;;;8.85;73.85
71621;BME280;59471;42.254;23.102;2023-04-03T14:47:25;94692.22;;;8.81;73.21
71621;BME280;59471;42.254;23.102;2023-04-03T14:49:53;94691.59;;;8.79;74.67
71621;BME280;59471;42.254;23.102;2023-04-03T14:52:25;94678.94;;;8.82;73.47
71621;BME280;59471;42.254;23.102;2023-04-03T14:54:53;94692.59;;;8.78;72.32
71621;BME280;59471;42.254;23.102;2023-04-03T14:57:21;94682.19;;;8.85;73.16
71621;BME280;59471;42.254;23.102;2023-04-03T14:59:49;94670.72;;;8.79;73.09
71621;BME280;59471;42.254;23.102;2023-04-03T15:02:25;94665.88;;;8.76;74.51
71621;BME280;59471;42.254;23.102;2023-04-03T15:04:54;94642.34;;;8.69;73.50
71621;BME280;59471;42.254;23.102;2023-04-03T15:07:21;94654.19;;;8.65;73.57
71621;BME280;59471;42.254;23.102;2023-04-03T15:09:48;94654.56;;;8.55;74.44
71621;BME280;59471;42.254;23.102;2023-04-03T15:12:14;94656.97;;;8.64;73.82
71621;BME280;59471;42.254;23.102;2023-04-03T15:14:40;94657.38;;;8.61;73.17
71621;BME280;59471;42.254;23.102;2023-04-03T15:17:05;94659.00;;;8.62;73.03
71621;BME280;59471;42.254;23.102;2023-04-03T15:19:39;94665.06;;;8.69;72.31
71621;BME280;59471;42.254;23.102;2023-04-03T15:22:05;94669.06;;;8.65;72.75
71621;BME280;59471;42.254;23.102;2023-04-03T15:24:30;94645.72;;;8.56;72.70
71621;BME280;59471;42.254;23.102;2023-04-03T15:26:56;94640.13;;;8.59;72.43